Dundas, Illinois
Current Conditions -  °F | °C
As of 7:15 PM on Thursday 27 Nov 2014 (Local Time) from KOLY Reporting Station
Scattered Clouds Scattered Clouds  
Wind Chill: 15°   Ceiling: Unl
Heat Index: 23°   Visibility: 10mi
Dew Point: 18°   Wind: 7mph
Humidity: 80%   Direction: 310°NW
Pressure: 30.49"   Gusts: NA
Location:  38.84°N, 88.09°W
Report Text: KOLY 280115Z AUTO 31006KT 10SM SCT028 M05/M08 A3049 RMK AO2
Loading
Personal Weather Stations






























Interactive Weather Map New forecast layout! Learn more

10-Day Weather Forecast

Advertisements
Track Severe Weather on mobile